Time;durP1;ratioP1;P1;durP2;ratioP2;P2;SDS_P1;SDS_P2;PMS_P1;PMS_P2;Temp;Humidity;BMP_temperature;BMP_pressure;BME280_temperature;BME280_humidity;BME280_pressure;Samples;Min_cycle;Max_cycle;Signal;HPM_P1;HPM_P2
2022/04/14 00:01:02;;;;;;;11.55;9.65;;;;;;;11.43;89.06;101977.13;10298358;28;20063;-75
2022/04/14 00:06:02;;;;;;;18.27;10.15;;;;;;;11.28;88.90;101977.00;10298866;28;20184;-76
2022/04/14 00:11:02;;;;;;;29.88;11.18;;;;;;;11.15;88.68;101979.44;10299089;28;20074;-76
2022/04/14 00:16:03;;;;;;;20.70;12.93;;;;;;;11.06;89.63;101972.34;10280418;28;20439;-76
2022/04/14 00:21:03;;;;;;;26.95;12.25;;;;;;;11.01;88.70;101969.31;10296858;28;20126;-75
2022/04/14 00:26:04;;;;;;;24.20;13.65;;;;;;;10.91;91.71;101980.34;10298816;28;20129;-75
2022/04/14 00:31:04;;;;;;;22.38;12.38;;;;;;;10.81;91.81;101969.69;10299437;28;20101;-75
2022/04/14 00:36:05;;;;;;;18.75;11.73;;;;;;;10.80;91.56;101961.75;10280045;28;20093;-76
2022/04/14 00:41:05;;;;;;;28.17;13.18;;;;;;;10.74;90.93;101962.44;10296710;28;20034;-76
2022/04/14 00:46:06;;;;;;;18.35;11.60;;;;;;;10.67;90.07;101965.00;10279223;28;20503;-75
2022/04/14 00:51:07;;;;;;;18.00;11.85;;;;;;;10.57;89.26;101957.06;10297075;28;20089;-77
2022/04/14 00:56:08;;;;;;;15.95;11.40;;;;;;;10.54;89.74;101972.81;10297784;28;20448;-75
2022/04/14 01:01:08;;;;;;;18.17;12.50;;;;;;;10.58;91.56;101963.31;10296294;28;20031;-74
2022/04/14 01:06:09;;;;;;;15.48;13.05;;;;;;;10.55;92.23;101958.25;10297346;28;20046;-76
2022/04/14 01:11:09;;;;;;;24.10;13.77;;;;;;;10.59;92.06;101965.00;10298138;28;20058;-75
2022/04/14 01:16:10;;;;;;;16.48;12.77;;;;;;;10.54;91.69;101972.81;10281026;28;20089;-75
2022/04/14 01:21:10;;;;;;;25.38;13.43;;;;;;;10.50;91.86;101980.44;10307187;28;20062;-76
2022/04/14 01:26:11;;;;;;;18.27;13.75;;;;;;;10.45;91.09;101980.94;10314062;28;20422;-76
2022/04/14 01:31:11;;;;;;;18.38;14.77;;;;;;;10.39;90.34;101980.75;10299963;28;20043;-75
2022/04/14 01:36:11;;;;;;;23.55;14.23;;;;;;;10.29;89.87;101983.66;10295288;28;20043;-75
2022/04/14 01:41:12;;;;;;;26.80;15.18;;;;;;;10.17;89.23;101993.06;10294371;28;20069;-76
2022/04/14 01:46:12;;;;;;;21.15;14.30;;;;;;;10.02;88.87;101985.63;10263505;28;20070;-76
2022/04/14 01:51:13;;;;;;;19.42;15.60;;;;;;;9.87;89.60;101987.28;10293519;28;20034;-75
2022/04/14 01:56:13;;;;;;;19.13;15.07;;;;;;;9.78;89.00;101988.28;10293952;28;20038;-77
2022/04/14 02:01:14;;;;;;;17.92;15.13;;;;;;;9.74;89.54;101995.91;10296663;28;20043;-76
2022/04/14 02:06:14;;;;;;;20.08;14.48;;;;;;;9.70;89.25;101997.25;10296103;28;20074;-77
2022/04/14 02:11:15;;;;;;;20.17;15.02;;;;;;;9.67;89.84;101996.72;10292512;28;20037;-77
2022/04/14 02:16:15;;;;;;;18.02;16.17;;;;;;;9.64;89.79;102003.31;10296188;28;20035;-76
2022/04/14 02:21:16;;;;;;;27.02;16.42;;;;;;;9.63;90.00;102000.75;10295131;28;20035;-77
2022/04/14 02:26:16;;;;;;;25.10;16.95;;;;;;;9.55;90.08;102001.59;10293520;28;20148;-76
2022/04/14 02:31:17;;;;;;;23.85;17.73;;;;;;;9.57;90.78;101998.69;10294614;28;20050;-75
2022/04/14 02:36:17;;;;;;;20.00;15.52;;;;;;;9.53;90.76;101996.31;10294043;28;20134;-77
2022/04/14 02:41:18;;;;;;;18.17;14.48;;;;;;;9.43;89.60;102005.59;10293090;28;20395;-76
2022/04/14 02:46:18;;;;;;;21.60;17.60;;;;;;;9.35;89.79;102003.72;10293808;28;20110;-76
2022/04/14 02:51:18;;;;;;;24.33;18.58;;;;;;;9.36;89.69;101999.16;10293679;28;20395;-76
2022/04/14 02:56:19;;;;;;;27.60;16.98;;;;;;;9.37;94.35;101993.56;10291796;28;20093;-76
2022/04/14 03:01:19;;;;;;;23.20;18.23;;;;;;;9.34;92.09;102007.41;10277625;28;20498;-77
2022/04/14 03:06:19;;;;;;;22.90;18.60;;;;;;;9.22;90.97;102006.00;10291745;28;20364;-76
2022/04/14 03:11:20;;;;;;;24.30;17.23;;;;;;;9.16;90.64;102007.50;10294012;28;20070;-77
2022/04/14 03:16:20;;;;;;;22.55;17.75;;;;;;;9.17;90.46;102008.34;10293382;28;20046;-76
2022/04/14 03:21:21;;;;;;;21.40;17.88;;;;;;;9.06;89.99;102010.31;10293084;28;20066;-76
2022/04/14 03:26:21;;;;;;;28.83;19.38;;;;;;;9.09;92.36;102003.72;10299055;28;20050;-76
2022/04/14 03:31:21;;;;;;;25.15;18.42;;;;;;;9.20;92.92;102032.34;10305488;28;20047;-76
2022/04/14 03:36:22;;;;;;;24.08;18.85;;;;;;;9.33;93.02;102016.53;10301252;28;20047;-78
2022/04/14 03:41:22;;;;;;;30.65;18.88;;;;;;;9.47;93.51;102029.41;10303616;28;20039;-78
2022/04/14 03:46:23;;;;;;;26.80;18.17;;;;;;;9.57;95.47;102014.94;10302763;28;20439;-75
2022/04/14 03:51:23;;;;;;;25.52;18.90;;;;;;;9.69;94.43;102021.72;10304701;28;20058;-76
2022/04/14 03:56:24;;;;;;;28.65;16.90;;;;;;;9.69;96.03;102021.72;10298376;28;20031;-77
2022/04/14 04:01:24;;;;;;;27.17;19.00;;;;;;;9.57;94.27;102018.47;10282524;28;20384;-76
2022/04/14 04:06:25;;;;;;;24.05;17.25;;;;;;;9.39;94.88;102020.44;10298316;28;20047;-76
2022/04/14 04:11:25;;;;;;;30.20;17.90;;;;;;;9.25;93.33;102030.00;10314572;28;20046;-76
2022/04/14 04:16:25;;;;;;;28.70;16.08;;;;;;;9.08;92.75;102019.09;10298773;28;20038;-76
2022/04/14 04:21:27;;;;;;;23.90;16.42;;;;;;;9.04;92.32;102031.25;10300871;28;20379;-78
2022/04/14 04:26:27;;;;;;;20.90;15.90;;;;;;;8.83;91.54;102031.59;10302112;28;20038;-76
2022/04/14 04:31:28;;;;;;;23.92;15.38;;;;;;;8.73;91.54;102036.25;10301284;28;20031;-76
2022/04/14 04:36:28;;;;;;;26.83;16.80;;;;;;;8.71;92.13;102032.91;10299091;28;20095;-76
2022/04/14 04:41:28;;;;;;;23.05;17.02;;;;;;;8.77;92.74;102039.50;10299643;28;20039;-77
2022/04/14 04:46:29;;;;;;;24.65;16.45;;;;;;;8.79;93.08;102038.34;10298960;28;20485;-76
2022/04/14 04:51:29;;;;;;;29.40;16.98;;;;;;;8.82;93.23;102045.28;10298183;28;20031;-79
2022/04/14 04:56:30;;;;;;;23.83;14.75;;;;;;;8.82;93.31;102054.22;10298271;28;20097;-75
2022/04/14 05:01:30;;;;;;;28.52;17.60;;;;;;;8.84;93.22;102060.31;10296719;28;20414;-75
2022/04/14 05:06:31;;;;;;;25.30;16.88;;;;;;;8.89;93.28;102065.25;10258747;28;20058;-75
2022/04/14 05:11:31;;;;;;;32.45;18.75;;;;;;;8.95;94.12;102064.63;10297235;28;20118;-75
2022/04/14 05:16:31;;;;;;;40.63;20.02;;;;;;;9.08;94.59;102061.50;10298210;28;20038;-77
2022/04/14 05:21:32;;;;;;;25.05;18.80;;;;;;;9.17;93.41;102074.06;10296508;28;20042;-80
2022/04/14 05:26:32;;;;;;;33.42;17.90;;;;;;;9.20;94.68;102062.91;10295187;28;20030;-76
2022/04/14 05:31:32;;;;;;;26.48;18.15;;;;;;;9.34;94.76;102074.97;10295658;28;20442;-76
2022/04/14 05:36:33;;;;;;;30.17;17.65;;;;;;;9.45;94.46;102073.88;10296331;28;20077;-76
2022/04/14 05:41:34;;;;;;;30.65;19.13;;;;;;;9.54;95.44;102072.91;10295092;28;20121;-77
2022/04/14 05:46:34;;;;;;;24.20;17.77;;;;;;;9.67;95.89;102086.81;10295587;28;20035;-78
2022/04/14 05:51:35;;;;;;;34.55;19.83;;;;;;;9.99;96.50;102088.81;10294681;28;20045;-76
2022/04/14 05:56:35;;;;;;;26.17;19.65;;;;;;;11.33;94.34;102087.69;10297098;28;20050;-76
2022/04/14 06:01:35;;;;;;;24.75;18.73;;;;;;;12.37;93.38;102091.13;10310549;28;20479;-77
2022/04/14 06:06:36;;;;;;;23.92;16.77;;;;;;;13.03;92.31;102095.84;10301041;28;20035;-77
2022/04/14 06:11:36;;;;;;;24.08;17.40;;;;;;;13.60;91.61;102086.25;10297934;28;20042;-76
2022/04/14 06:16:37;;;;;;;26.13;13.88;;;;;;;14.02;92.50;102081.97;10292784;28;20070;-76
2022/04/14 06:21:38;;;;;;;22.92;12.32;;;;;;;14.52;92.10;102090.31;10293892;28;20074;-77
2022/04/14 06:26:38;;;;;;;20.90;13.77;;;;;;;14.93;91.75;102087.72;10295144;28;20094;-77
2022/04/14 06:31:38;;;;;;;18.38;13.40;;;;;;;15.15;92.85;102091.25;10292756;28;20387;-77
2022/04/14 06:36:39;;;;;;;18.90;13.63;;;;;;;15.42;92.46;102086.00;10291213;28;20506;-76
2022/04/14 06:41:39;;;;;;;26.55;13.23;;;;;;;16.00;88.80;102091.97;10292846;28;20034;-77
2022/04/14 06:46:40;;;;;;;14.45;12.63;;;;;;;16.54;87.88;102101.16;10292167;28;20105;-77
2022/04/14 06:51:40;;;;;;;17.52;12.45;;;;;;;16.99;88.13;102104.19;10292965;28;20070;-77
2022/04/14 06:56:40;;;;;;;14.90;11.88;;;;;;;17.46;86.80;102102.22;10292985;28;20043;-76
2022/04/14 07:01:41;;;;;;;13.45;10.77;;;;;;;18.00;85.71;102115.56;10299656;28;20122;-76
2022/04/14 07:06:41;;;;;;;16.80;10.18;;;;;;;18.66;85.58;102108.03;10300649;28;20039;-76
2022/04/14 07:11:42;;;;;;;28.48;9.63;;;;;;;19.23;84.22;102104.19;10300448;28;20039;-75
2022/04/14 07:16:42;;;;;;;12.80;9.05;;;;;;;19.54;84.18;102116.16;10300820;28;20139;-75
2022/04/14 07:21:42;;;;;;;13.73;8.98;;;;;;;19.81;81.56;102110.38;10299874;28;20448;-76
2022/04/14 07:26:44;;;;;;;9.15;8.25;;;;;;;20.01;76.84;102107.41;10299642;28;20057;-75
2022/04/14 07:31:45;;;;;;;13.05;8.43;;;;;;;20.03;75.54;102106.06;10299155;28;20039;-75
2022/04/14 07:36:46;;;;;;;12.38;8.75;;;;;;;20.27;73.55;102114.44;10298349;28;20046;-75
2022/04/14 07:41:47;;;;;;;11.98;9.73;;;;;;;20.86;74.37;102116.31;10301475;28;20031;-74
2022/04/14 07:46:47;;;;;;;9.90;8.23;;;;;;;21.42;71.55;102121.56;10297740;28;20059;-73
2022/04/14 07:51:48;;;;;;;14.40;9.57;;;;;;;21.90;70.69;102126.75;10297771;28;20439;-75
2022/04/14 07:56:48;;;;;;;16.38;8.20;;;;;;;22.16;68.99;102130.06;10297384;28;20041;-74
2022/04/14 08:01:48;;;;;;;8.98;8.07;;;;;;;22.64;67.90;102118.56;10281694;28;20038;-74
2022/04/14 08:06:49;;;;;;;18.83;8.75;;;;;;;22.49;65.94;102119.16;10296928;28;20129;-75
2022/04/14 08:11:49;;;;;;;12.02;8.00;;;;;;;22.81;65.88;102112.22;10297761;28;20035;-74
2022/04/14 08:16:50;;;;;;;9.25;7.57;;;;;;;23.14;65.56;102109.50;10298429;28;20052;-74
2022/04/14 08:21:50;;;;;;;9.93;7.50;;;;;;;23.70;66.77;102115.03;10296777;28;20066;-76
2022/04/14 08:26:52;;;;;;;12.50;8.45;;;;;;;23.88;65.04;102111.94;10303827;28;20177;-74
2022/04/14 08:31:52;;;;;;;9.38;7.72;;;;;;;24.26;64.14;102112.94;10302211;28;20403;-75
2022/04/14 08:36:53;;;;;;;11.93;7.68;;;;;;;24.67;64.03;102107.84;10295827;28;20045;-75
2022/04/14 08:42:00;;;;;;;8.80;6.90;;;;;;;24.59;57.13;102087.00;10301379;28;20085;-75
2022/04/14 08:47:01;;;;;;;22.05;6.55;;;;;;;24.75;53.24;102082.44;10297049;28;20035;-78
2022/04/14 08:52:01;;;;;;;7.50;5.97;;;;;;;24.99;48.89;102082.06;10279067;28;20402;-78
2022/04/14 08:57:02;;;;;;;8.93;5.15;;;;;;;24.88;48.76;102078.38;10296609;28;20031;-78
2022/04/14 09:02:04;;;;;;;11.18;5.55;;;;;;;24.58;50.75;102081.72;10296396;28;20070;-78
2022/04/14 09:07:04;;;;;;;8.00;4.38;;;;;;;24.70;52.67;102076.84;10295191;28;20475;-78
2022/04/14 09:12:05;;;;;;;6.65;4.15;;;;;;;24.82;53.12;102090.50;10296635;28;20089;-78
2022/04/14 09:17:06;;;;;;;7.03;4.35;;;;;;;24.27;54.94;102100.78;10278725;28;20129;-78
2022/04/14 09:22:11;;;;;;;5.07;4.68;;;;;;;24.96;50.63;102110.31;10294041;28;20034;-78
2022/04/14 09:27:25;;;;;;;7.28;3.97;;;;;;;25.07;50.27;102123.13;10295526;28;20090;-78
2022/04/14 09:32:39;;;;;;;10.23;6.30;;;;;;;25.63;46.99;102134.66;10294474;28;20410;-78
2022/04/14 09:37:40;;;;;;;6.20;5.68;;;;;;;25.79;51.91;102137.50;10294254;28;20455;-78
2022/04/14 09:42:43;;;;;;;6.10;4.90;;;;;;;26.15;51.69;102132.97;10278490;28;20062;-78
2022/04/14 09:47:44;;;;;;;9.82;6.25;;;;;;;26.75;52.89;102134.22;10295921;28;20039;-79
2022/04/14 09:53:13;;;;;;;7.60;5.63;;;;;;;26.07;52.23;102133.47;10277856;28;20039;-78
2022/04/14 09:58:15;;;;;;;7.82;6.15;;;;;;;26.21;49.39;102140.19;10293438;28;20386;-79
2022/04/14 10:03:15;;;;;;;6.18;5.35;;;;;;;26.40;50.59;102130.25;10292887;28;20034;-78
2022/04/14 10:08:16;;;;;;;8.13;4.33;;;;;;;24.98;52.67;102141.34;10294161;28;20035;-78
2022/04/14 10:13:17;;;;;;;8.07;4.78;;;;;;;24.06;56.91;102144.00;10294804;28;20660;-78
2022/04/14 10:18:18;;;;;;;9.50;4.55;;;;;;;25.28;53.52;102144.41;10293424;28;20058;-78
2022/04/14 10:23:18;;;;;;;7.10;5.43;;;;;;;26.02;45.52;102139.03;10294202;28;20035;-78
2022/04/14 10:28:19;;;;;;;8.90;4.38;;;;;;;26.70;45.61;102153.66;10293538;28;20085;-78
2022/04/14 10:33:20;;;;;;;5.90;4.40;;;;;;;27.21;47.68;102148.13;10293728;28;20456;-78
2022/04/14 10:38:34;;;;;;;3.63;2.78;;;;;;;27.44;45.42;102146.75;10301217;28;20050;-77
2022/04/14 10:43:38;;;;;;;5.43;4.13;;;;;;;27.01;45.41;102162.84;10302755;28;20371;-77
2022/04/14 10:48:40;;;;;;;6.25;3.47;;;;;;;27.46;45.82;102152.00;10301921;28;20101;-77
2022/04/14 10:54:00;;;;;;;3.28;3.08;;;;;;;27.71;45.20;102142.75;10302732;28;20218;-77
2022/04/14 10:59:01;;;;;;;15.10;3.42;;;;;;;28.04;48.18;102152.41;10301157;28;20177;-77
2022/04/14 11:04:01;;;;;;;8.60;4.28;;;;;;;27.43;50.76;102153.41;10300056;28;20077;-76
2022/04/14 11:09:02;;;;;;;7.05;3.85;;;;;;;27.72;48.55;102161.13;10284563;28;20042;-77
2022/04/14 11:14:06;;;;;;;7.75;4.82;;;;;;;28.59;44.55;102155.19;10300959;28;20038;-77
2022/04/14 11:19:18;;;;;;;5.00;4.47;;;;;;;27.93;46.67;102165.53;10299810;28;20394;-77
2022/04/14 11:24:19;;;;;;;7.20;5.35;;;;;;;28.15;47.78;102154.03;10300735;28;20455;-77
2022/04/14 11:29:30;;;;;;;8.82;4.40;;;;;;;28.03;47.01;102151.56;10299776;28;20066;-77
2022/04/14 11:34:34;;;;;;;6.13;4.82;;;;;;;28.48;47.18;102140.50;10299782;28;20451;-77
2022/04/14 11:39:35;;;;;;;4.05;3.50;;;;;;;28.82;44.87;102137.75;10298282;28;20031;-77
2022/04/14 11:44:36;;;;;;;8.80;4.45;;;;;;;28.88;46.70;102147.75;10280933;28;20034;-77
2022/04/14 11:49:36;;;;;;;5.95;4.00;;;;;;;28.82;45.75;102148.91;10298305;28;20601;-77
2022/04/14 11:54:37;;;;;;;3.50;3.25;;;;;;;28.26;43.26;102154.81;10299109;28;20031;-78
2022/04/14 11:59:45;;;;;;;7.00;4.15;;;;;;;28.18;42.59;102152.63;10298990;28;20053;-77
2022/04/14 12:04:56;;;;;;;5.95;3.95;;;;;;;27.96;42.80;102156.63;10299393;28;20119;-78
2022/04/14 12:10:00;;;;;;;5.43;4.13;;;;;;;27.87;42.89;102160.28;10298756;28;20114;-77
2022/04/14 12:15:01;;;;;;;5.15;3.65;;;;;;;27.91;42.63;102161.38;10297372;28;20368;-77
2022/04/14 12:20:03;;;;;;;4.32;3.40;;;;;;;27.84;43.02;102164.47;10298056;28;20035;-77
2022/04/14 12:25:05;;;;;;;3.50;3.17;;;;;;;27.77;42.65;102172.28;10296599;28;20042;-77
2022/04/14 12:30:09;;;;;;;4.72;4.20;;;;;;;27.85;39.17;102162.50;10298065;28;20467;-77
2022/04/14 12:35:10;;;;;;;4.70;3.35;;;;;;;27.48;40.15;102172.88;10297087;28;20031;-77
2022/04/14 12:40:13;;;;;;;3.92;3.63;;;;;;;27.07;43.26;102183.16;10298620;28;20055;-77
2022/04/14 12:45:15;;;;;;;6.03;3.60;;;;;;;27.31;44.38;102183.44;10296336;28;20042;-77
2022/04/14 12:50:19;;;;;;;4.47;4.10;;;;;;;27.16;44.93;102189.88;10296257;28;20031;-77
2022/04/14 12:55:27;;;;;;;10.82;4.93;;;;;;;26.65;42.78;102182.28;10279472;28;20042;-77
2022/04/14 13:00:30;;;;;;;4.35;3.95;;;;;;;26.52;42.32;102187.53;10296585;28;20034;-77
2022/04/14 13:05:30;;;;;;;4.60;4.20;;;;;;;26.41;42.39;102193.00;10296382;28;20485;-76
2022/04/14 13:10:34;;;;;;;5.55;5.05;;;;;;;26.07;44.46;102194.53;10294681;28;20114;-76
2022/04/14 13:15:35;;;;;;;6.15;5.05;;;;;;;25.20;43.83;102205.03;10297649;28;20034;-76
2022/04/14 13:20:37;;;;;;;6.78;4.72;;;;;;;24.98;45.58;102207.88;10295625;28;20064;-77
2022/04/14 13:25:38;;;;;;;4.78;4.43;;;;;;;24.95;43.63;102202.84;10293933;28;20094;-76
2022/04/14 13:30:39;;;;;;;4.72;4.13;;;;;;;24.79;45.95;102208.25;10294464;28;20372;-76
2022/04/14 13:35:39;;;;;;;4.38;3.72;;;;;;;24.82;46.73;102207.75;10294848;28;20069;-76
2022/04/14 13:40:39;;;;;;;5.88;4.68;;;;;;;24.71;46.36;102214.25;10294279;28;20541;-76
2022/04/14 13:45:40;;;;;;;7.25;4.63;;;;;;;24.50;46.83;102212.34;10295744;28;20035;-76
2022/04/14 13:50:43;;;;;;;5.35;4.85;;;;;;;24.29;46.53;102203.78;10294507;28;20518;-76
2022/04/14 13:55:44;;;;;;;7.57;5.80;;;;;;;24.11;47.35;102204.09;10293754;28;20125;-76
2022/04/14 14:00:44;;;;;;;6.68;6.00;;;;;;;24.12;44.96;102203.84;10293494;28;20046;-76
2022/04/14 14:05:45;;;;;;;11.13;5.13;;;;;;;24.10;48.75;102206.03;10293793;28;20375;-76
2022/04/14 14:10:45;;;;;;;5.82;5.25;;;;;;;23.85;48.67;102203.75;10292931;28;20105;-76
2022/04/14 14:15:46;;;;;;;7.55;6.78;;;;;;;23.62;48.41;102213.06;10293064;28;20038;-76
2022/04/14 14:20:49;;;;;;;7.35;6.18;;;;;;;23.07;49.12;102196.38;10295074;28;20031;-76
2022/04/14 14:25:49;;;;;;;7.72;6.93;;;;;;;23.11;49.77;102203.13;10293870;28;20031;-76
2022/04/14 14:30:50;;;;;;;7.65;5.25;;;;;;;23.00;50.34;102193.78;10293988;28;20055;-76
2022/04/14 14:35:50;;;;;;;7.45;6.53;;;;;;;22.58;49.67;102207.91;10294545;28;20194;-76
2022/04/14 14:40:50;;;;;;;13.70;6.70;;;;;;;22.42;50.22;102204.00;10292125;28;20038;-75
2022/04/14 14:45:51;;;;;;;8.50;7.63;;;;;;;22.12;50.59;102209.69;10294291;28;20042;-76
2022/04/14 14:50:51;;;;;;;6.90;6.20;;;;;;;21.81;50.51;102203.50;10294664;28;20284;-76
2022/04/14 14:55:52;;;;;;;11.10;8.80;;;;;;;21.57;51.00;102201.84;10292710;28;20034;-76
2022/04/14 15:00:52;;;;;;;8.68;7.93;;;;;;;20.99;51.97;102202.56;10294358;28;20120;-76
2022/04/14 15:05:53;;;;;;;9.65;8.50;;;;;;;20.55;52.65;102204.66;10294175;28;20415;-75
2022/04/14 15:10:53;;;;;;;10.93;8.88;;;;;;;20.14;52.73;102209.81;10293336;28;20039;-75
2022/04/14 15:15:56;;;;;;;10.25;9.25;;;;;;;19.80;53.41;102211.25;10293542;28;20035;-75
2022/04/14 15:20:56;;;;;;;14.55;9.05;;;;;;;19.49;53.35;102214.88;10296600;28;20034;-76
2022/04/14 15:25:56;;;;;;;11.32;10.07;;;;;;;19.05;53.98;102234.03;10301706;28;20031;-75
2022/04/14 15:31:01;;;;;;;14.27;10.63;;;;;;;18.62;56.11;102231.09;10300721;28;20054;-75
2022/04/14 15:36:01;;;;;;;12.20;10.18;;;;;;;18.27;56.20;102228.69;10300186;28;20039;-75
2022/04/14 15:41:02;;;;;;;13.07;11.65;;;;;;;17.96;56.63;102234.06;10282328;28;20129;-75
2022/04/14 15:46:06;;;;;;;18.20;14.25;;;;;;;17.86;56.93;102238.09;10300535;28;20050;-76
2022/04/14 15:51:07;;;;;;;15.30;11.32;;;;;;;17.61;58.03;102242.50;10298763;28;20062;-75
2022/04/14 15:56:07;;;;;;;17.48;12.57;;;;;;;17.29;57.86;102244.19;10299631;28;20058;-75
2022/04/14 16:01:08;;;;;;;21.45;12.98;;;;;;;17.22;58.02;102248.81;10299249;28;20031;-75
2022/04/14 16:06:09;;;;;;;19.95;14.77;;;;;;;16.96;59.18;102261.41;10299289;28;20026;-76
2022/04/14 16:16:31;;;;;;;17.95;13.68;;;;;;;16.74;59.00;102263.41;10299174;28;20035;-76
2022/04/14 16:21:31;;;;;;;17.17;13.57;;;;;;;16.51;61.31;102261.00;10299948;28;20397;-76
2022/04/14 16:26:32;;;;;;;18.38;13.82;;;;;;;16.48;60.09;102265.00;10297498;28;20066;-76
2022/04/14 16:31:32;;;;;;;21.25;13.82;;;;;;;16.42;59.75;102265.81;10296812;28;20051;-76
2022/04/14 16:36:33;;;;;;;22.58;15.52;;;;;;;16.25;59.71;102265.31;10297490;28;20081;-76
2022/04/14 16:41:34;;;;;;;25.02;15.77;;;;;;;16.09;61.69;102267.53;10295773;28;20042;-76
2022/04/14 16:46:35;;;;;;;20.55;15.30;;;;;;;15.97;60.30;102267.22;10280291;28;20022;-76
2022/04/14 16:51:37;;;;;;;28.70;16.77;;;;;;;15.78;62.30;102279.69;10297483;28;20467;-76
2022/04/14 16:56:38;;;;;;;20.52;14.43;;;;;;;15.68;62.12;102279.22;10311948;28;20477;-76
2022/04/14 17:01:40;;;;;;;16.13;14.00;;;;;;;15.55;62.24;102269.81;10296850;28;20098;-76
2022/04/14 17:06:41;;;;;;;20.77;14.70;;;;;;;15.44;62.64;102280.44;10294954;28;20030;-76
2022/04/14 17:11:42;;;;;;;19.17;15.75;;;;;;;15.33;61.94;102284.53;10297403;28;20157;-76
2022/04/14 17:16:46;;;;;;;24.67;17.17;;;;;;;15.18;62.18;102290.03;10295168;28;20031;-76
2022/04/14 17:27:05;;;;;;;23.58;17.17;;;;;;;14.92;62.49;102296.06;10294697;28;20398;-76
2022/04/14 17:32:05;;;;;;;28.83;19.25;;;;;;;14.82;62.52;102300.97;10297563;28;20149;-75
2022/04/14 17:37:06;;;;;;;25.10;18.23;;;;;;;14.71;64.18;102298.72;10296192;28;20594;-76
2022/04/14 17:42:06;;;;;;;31.50;18.00;;;;;;;14.59;63.71;102310.16;10295836;28;20061;-76
2022/04/14 17:47:06;;;;;;;26.10;17.55;;;;;;;14.46;63.71;102314.56;10296523;28;20034;-75
2022/04/14 17:52:07;;;;;;;26.48;18.20;;;;;;;14.31;63.23;102318.09;10295539;28;20051;-75
2022/04/14 17:57:07;;;;;;;22.65;17.40;;;;;;;14.21;64.06;102317.53;10293696;28;20062;-75
2022/04/14 18:02:12;;;;;;;20.73;16.75;;;;;;;14.08;64.73;102325.53;10296170;28;20035;-76
2022/04/14 18:07:12;;;;;;;26.90;18.50;;;;;;;13.97;64.35;102318.63;10293956;28;20483;-76
2022/04/14 18:12:13;;;;;;;30.92;19.83;;;;;;;13.86;64.19;102321.81;10294375;28;20042;-76
2022/04/14 18:17:13;;;;;;;25.20;18.15;;;;;;;13.70;64.68;102318.19;10293206;28;20047;-76
2022/04/14 18:22:13;;;;;;;24.25;18.55;;;;;;;13.61;65.42;102323.91;10294693;28;20035;-75
2022/04/14 18:27:14;;;;;;;24.38;18.35;;;;;;;13.48;65.74;102335.41;10294515;28;20517;-76
2022/04/14 18:32:14;;;;;;;31.10;21.13;;;;;;;13.37;65.55;102335.81;10294581;28;20397;-75
2022/04/14 18:37:15;;;;;;;24.52;17.23;;;;;;;13.23;65.76;102343.69;10295777;28;20386;-75
2022/04/14 18:42:15;;;;;;;34.88;20.10;;;;;;;13.11;66.21;102356.00;10295310;28;20054;-75
2022/04/14 18:47:16;;;;;;;35.05;19.70;;;;;;;12.99;66.39;102349.28;10293536;28;20125;-75
2022/04/14 18:52:16;;;;;;;29.92;19.25;;;;;;;12.91;66.82;102365.63;10294627;28;20042;-75
2022/04/14 18:57:17;;;;;;;30.63;19.73;;;;;;;12.78;67.15;102372.47;10299436;28;20371;-76
2022/04/14 19:02:17;;;;;;;30.48;21.30;;;;;;;12.64;67.09;102384.09;10301219;28;20073;-76
2022/04/14 19:07:17;;;;;;;29.60;21.92;;;;;;;12.54;67.38;102389.72;10301947;28;20035;-75
2022/04/14 19:12:18;;;;;;;31.70;22.77;;;;;;;12.44;67.53;102390.94;10300295;28;20394;-76
2022/04/14 19:17:18;;;;;;;32.95;22.10;;;;;;;12.34;69.11;102394.69;10301685;28;20047;-74
2022/04/14 19:22:21;;;;;;;30.10;21.08;;;;;;;12.24;69.67;102390.47;10299962;28;20038;-74
2022/04/14 19:27:22;;;;;;;34.25;20.70;;;;;;;12.10;69.70;102405.59;10301961;28;20046;-75
2022/04/14 19:32:22;;;;;;;30.23;23.13;;;;;;;11.94;69.28;102405.59;10301822;28;20383;-75
2022/04/14 19:37:22;;;;;;;32.47;24.65;;;;;;;11.83;69.38;102409.44;10299377;28;20137;-76
2022/04/14 19:42:23;;;;;;;37.72;22.27;;;;;;;11.73;69.95;102412.31;10301028;28;20027;-76
2022/04/14 19:47:23;;;;;;;43.38;22.88;;;;;;;11.63;69.82;102411.66;10300464;28;20428;-76
2022/04/14 19:52:24;;;;;;;36.90;26.13;;;;;;;11.55;70.19;102414.34;10283231;28;20069;-76
2022/04/14 19:57:25;;;;;;;38.15;22.55;;;;;;;11.47;70.09;102419.75;10303184;28;20050;-75
2022/04/14 20:02:25;;;;;;;30.05;23.83;;;;;;;11.39;70.64;102424.16;10300592;28;20121;-76
2022/04/14 20:07:26;;;;;;;43.45;23.58;;;;;;;11.30;70.79;102427.84;10297918;28;20065;-75
2022/04/14 20:12:26;;;;;;;33.10;24.00;;;;;;;11.18;72.06;102429.16;10300583;28;20035;-74
2022/04/14 20:17:27;;;;;;;36.30;24.05;;;;;;;11.08;71.56;102433.88;10299671;28;20162;-75
2022/04/14 20:22:28;;;;;;;32.20;22.30;;;;;;;10.94;71.75;102436.19;10299995;28;20039;-76
2022/04/14 20:27:29;;;;;;;31.40;22.50;;;;;;;10.94;73.28;102444.34;10299801;28;20049;-75
2022/04/14 20:32:29;;;;;;;33.47;20.33;;;;;;;10.89;72.64;102452.09;10299404;28;20495;-75
2022/04/14 20:37:29;;;;;;;27.15;21.35;;;;;;;10.79;73.02;102447.81;10298099;28;20074;-75
2022/04/14 20:42:30;;;;;;;41.28;24.65;;;;;;;10.70;73.16;102452.31;10297867;28;20035;-75
2022/04/14 20:47:30;;;;;;;31.15;23.83;;;;;;;10.59;73.70;102460.69;10297739;28;20438;-76
2022/04/14 20:52:31;;;;;;;39.67;25.08;;;;;;;10.47;75.11;102466.41;10297915;28;20061;-75
2022/04/14 20:57:31;;;;;;;35.50;26.17;;;;;;;10.33;74.69;102466.94;10296632;28;20059;-75
2022/04/14 21:02:31;;;;;;;34.03;25.13;;;;;;;10.16;74.10;102463.25;10297041;28;20046;-74
2022/04/14 21:07:32;;;;;;;44.70;28.95;;;;;;;10.06;74.62;102467.06;10297841;28;20066;-75
2022/04/14 21:12:32;;;;;;;44.72;25.98;;;;;;;9.99;74.25;102475.78;10295663;28;20042;-75
2022/04/14 21:17:33;;;;;;;45.33;27.45;;;;;;;9.90;75.44;102474.00;10295406;28;20034;-76
2022/04/14 21:22:34;;;;;;;41.78;30.30;;;;;;;9.83;76.27;102478.34;10296160;28;20041;-75
2022/04/14 21:27:35;;;;;;;54.10;31.88;;;;;;;9.73;75.96;102485.66;10297015;28;20039;-76
2022/04/14 21:32:35;;;;;;;47.60;32.25;;;;;;;9.64;75.48;102481.19;10296036;28;20550;-75
2022/04/14 21:37:36;;;;;;;44.42;31.63;;;;;;;9.61;76.65;102486.91;10296390;28;20030;-76
2022/04/14 21:42:36;;;;;;;56.40;34.08;;;;;;;9.57;76.75;102485.47;10294558;28;20122;-76
2022/04/14 21:47:37;;;;;;;50.22;34.10;;;;;;;9.49;76.29;102489.81;10295177;28;20031;-76
2022/04/14 21:52:37;;;;;;;52.38;32.30;;;;;;;9.41;76.84;102484.31;10295409;28;20039;-76
2022/04/14 21:57:38;;;;;;;52.13;33.65;;;;;;;9.38;76.54;102489.16;10295195;28;20483;-75
2022/04/14 22:02:38;;;;;;;47.08;33.72;;;;;;;9.35;77.21;102489.44;10295778;28;20043;-75
2022/04/14 22:07:39;;;;;;;50.75;33.28;;;;;;;9.25;76.76;102484.97;10295309;28;20037;-76
2022/04/14 22:12:39;;;;;;;54.45;31.83;;;;;;;9.26;76.81;102485.81;10294790;28;20475;-76
2022/04/14 22:17:39;;;;;;;59.80;37.25;;;;;;;9.23;77.09;102492.38;10293484;28;20470;-75
2022/04/14 22:22:40;;;;;;;53.85;34.38;;;;;;;9.19;77.67;102484.69;10294419;28;20035;-76
2022/04/14 22:27:40;;;;;;;53.88;34.60;;;;;;;9.14;77.31;102487.00;10294063;28;20042;-76
2022/04/14 22:32:41;;;;;;;58.35;35.35;;;;;;;9.08;77.67;102489.28;10293011;28;20058;-75
2022/04/14 22:37:41;;;;;;;50.53;34.90;;;;;;;9.01;77.57;102493.59;10297290;28;20082;-75
2022/04/14 22:42:41;;;;;;;54.40;34.63;;;;;;;8.96;78.04;102500.44;10296708;28;20461;-75
2022/04/14 22:47:42;;;;;;;50.97;34.42;;;;;;;8.91;78.09;102509.00;10294113;28;20045;-75
2022/04/14 22:52:42;;;;;;;45.88;29.48;;;;;;;8.82;78.00;102497.22;10294329;28;20133;-76
2022/04/14 22:57:47;;;;;;;52.10;33.90;;;;;;;8.81;78.20;102510.88;10292472;28;20078;-76